Main page
METAR-TAF:

METAR-TAF

Airports :

Cascais Municipal Aerodrome

Cascais, Portugal

latitude: 38-43-32N, longitude: 009-21-19W, elevation: 99 m

Current weather observation

The report was made 7 hours and 28 minutes ago, at 22:30 UTC
Wind 17 kt from the North
Temperature 18°C
Humidity 83%
Pressure 1016 hPa
Visibility 10 km or more
Few clouds at a height of 1100 ft

METAR: LPCS 242230Z 35017KT 9999 FEW011 18/15 Q1016

Time: 06:58 (05:58 UTC)

Forecast

The report was made 15 hours and 58 minutes ago, at 14:00 UTC
Forecast valid from 24 at 15 UTC to 24 at 24 UTC
Wind 15 kt from the North
Visibility 10 km or more
no clouds below 1500 m and no cumulonimbus
Temporary
from 24 at 15 UTC to 24 at 21 UTC
Wind 18 kt from the North/Northwest with gusts up to 30 kt
Becoming
from 24 at 21 UTC to 24 at 24 UTC
Wind 10 kt from the North
Visibility 10 km or more
Few clouds at a height of 1000 ft

TAF: LPCS 241400Z 2415/2424 35015KT CAVOK TEMPO 2415/2421 34018G30KT BECMG 2421/2424 35010KT 9999 FEW010

Weather observations and forecasts of more than 4000 airports (METAR and TAF reports).

The available stations are represented by yellow and red dots on the map.

Hover mouse over dot to see the name of the station.

Then click to see weather observations and forecasts.

To change the map : click on the green buttons with a black cross to zoom in, on the green button with a dash to zoom out, or on the green arrows for adjacent maps.


METAR-TAF: